Kirchberg-Wetter.de


Hier erfahren Sie, wie das Wetter wird...


WebCam am Fuchsberg more information WebCam am Fuchsberg


Thunder radar more information blitzortung!


Rain radar more information rain snow radar


Besuchen Sie unsere anderen Wetter Stationen:

Template documentation
and downloads

And another site



Wind Gültig von: 29-02-2020 00:00 bis: 12:00 Warnung für: Wind Gefahrenstufe: Gelb info button
deutsch:
Es treten Windböen mit Geschwindigkeiten bis 60 km/h (17m/s, 33kn, Bft 7) aus südwestlicher Richtung auf.

english:
There is a risk of wind gusts (level 1 of 4).Max. gusts: < 60 km/h; Wind direction: south-west 

METAR-Meldungen aus der Umgebung

   
EHVK - Volkel Rnlafb, Netherlands
Entfernung von der Station bis: SW 18 km
Aktualisierung: 29-02-2020 09:25
Bewölkt  
Bewölkt  
   Wind: Süden 22.2 km/h
Wind: Süden 22.2 km/h
Temperatur: 10°C
Gefühlt: 7°C
Taupunkt: 6°C
Luftfeuchte: 76%
Luftdruck: 991 hPa
Bewölkt: Bewölkt
Sichtbarkeit: More than 10 km
Bewölkung: Bewölkt 26000 ft
EHVK 290825Z AUTO 18012KT 120V220 9999 OVC260 10/06 Q0991 BLU
EDLV - Niederrhein, Germany
Entfernung von der Station bis: SO 25 km
Aktualisierung: 29-02-2020 09:20
Klar  
Klar  
   Wind: Süden 22.2 km/h
Wind: Süden 22.2 km/h
Temperatur: 10°C
Gefühlt: 7°C
Taupunkt: 5°C
Luftfeuchte: 71%
Luftdruck: 992 hPa
Sichtbarkeit: More than 10 km
Bewölkung: Klar
EDLV 290820Z 18012KT CAVOK 10/05 Q0992
EHDL - Deelen Rnlafb, Netherlands
Entfernung von der Station bis: N 35 km
Aktualisierung: 29-02-2020 09:25
Bewölkt  
Bewölkt  
   Wind: Süden 27.8 km/h
Wind: Süden 27.8 km/h
Temperatur: 9°C
Gefühlt: 6°C
Taupunkt: 6°C
Luftfeuchte: 82%
Luftdruck: 991 hPa
Bewölkt: Bewölkt
Sichtbarkeit: More than 10 km
Bewölkung: Bewölkt 15000 ft
EHDL 290825Z AUTO 18015KT 120V230 9999 OVC150 09/06 Q0991 BLU
EHEH - Eindhoven Rnlafb, Netherlands
Entfernung von der Station bis: SW 48 km
Aktualisierung: 29-02-2020 09:25
Bewölkt  
Bewölkt  
   Wind: Süden 24.1 km/h
Wind: Süden 24.1 km/h
Temperatur: 10°C
Gefühlt: 7°C
Taupunkt: 6°C
Luftfeuchte: 76%
Luftdruck: 991 hPa
Bewölkt: Bewölkt
Sichtbarkeit: More than 10 km
Bewölkung: Bewölkt 26000 ft
EHEH 290825Z AUTO 17013KT 140V210 9999 OVC260 10/06 Q0991 BLU 20015G25KT 9999 SCT025
EHGR - Gilze-Rijen Rnla, Netherlands
Entfernung von der Station bis: WSW 70 km
Aktualisierung: 29-02-2020 09:25
Bewölkt  
Bewölkt  
   Wind: Süden 25.9 km/h
Wind: Süden 25.9 km/h
Temperatur: 9°C
Gefühlt: 6°C
Taupunkt: 6°C
Luftfeuchte: 82%
Luftdruck: 990 hPa
Bewölkt: Bewölkt
Sichtbarkeit: More than 10 km
Bewölkung: Bewölkt 25000 ft
EHGR 290825Z AUTO 17014KT 130V200 9999 OVC250 09/06 Q0990 BLU
EBBL - Kleine-Brogel(Ba, Belgium
Entfernung von der Station bis: SSW 71 km
Aktualisierung: 29-02-2020 09:25
Klar  
Klar  
   Wind: Süden 16.7 km/h
Wind: Süden 16.7 km/h
Temperatur: 10°C
Gefühlt: 8°C
Taupunkt: 5°C
Luftfeuchte: 71%
Luftdruck: 991 hPa
Bewölkt: Klar
Sichtbarkeit: More than 10 km
Bewölkung: Klar
EBBL 290825Z AUTO 18009KT 9999 NCD 10/05 Q0991 BLU

Script entwickelt von  Saratoga-weather.org Angepasst für das Template von  Weerstation Leuven

Sie finden unser Wetter-Infos auch auf:

Weather Underground

WeatherlinkIP

Wetternetz-Sachsen

Von uns verwendete Ausrüstung:

Wetterstation
Davis Vantage Pro2 Plus

Wetterprogramm
Meteobridge

WetterComputer
TP-Link TL-MR3020

Davis Vantage Pro2 Plus

Meteobridge

TP-Link TL-MR3020